createdAt,value
2022-08-23T00:01:24.985Z,17.50
2022-08-23T00:03:54.002Z,17.50
2022-08-23T00:06:26.125Z,17.40
2022-08-23T00:08:54.216Z,17.40
2022-08-23T00:11:32.306Z,17.40
2022-08-23T00:14:02.436Z,17.30
2022-08-23T00:16:29.954Z,17.30
2022-08-23T00:18:57.415Z,17.30
2022-08-23T00:21:25.327Z,17.30
2022-08-23T00:23:52.601Z,17.30
2022-08-23T00:26:20.991Z,17.30
2022-08-23T00:28:50.061Z,17.20
2022-08-23T00:31:19.096Z,17.20
2022-08-23T00:33:46.580Z,17.10
2022-08-23T00:36:14.197Z,17.10
2022-08-23T00:38:42.238Z,17.10
2022-08-23T00:41:09.629Z,17.00
2022-08-23T00:43:58.808Z,17.00
2022-08-23T00:46:44.970Z,16.90
2022-08-23T00:49:15.147Z,16.90
2022-08-23T00:51:53.068Z,16.80
2022-08-23T00:54:23.417Z,16.80
2022-08-23T00:56:52.588Z,16.70
2022-08-23T00:59:20.057Z,16.70
2022-08-23T01:01:49.266Z,16.60
2022-08-23T01:04:17.674Z,16.60
2022-08-23T01:06:50.995Z,16.50
2022-08-23T01:09:21.302Z,16.50
2022-08-23T01:11:54.682Z,16.40
2022-08-23T01:14:31.120Z,16.30
2022-08-23T01:17:22.659Z,16.30
2022-08-23T01:19:59.912Z,16.20
2022-08-23T01:22:46.121Z,16.20
2022-08-23T01:25:17.378Z,16.10
2022-08-23T01:27:46.261Z,16.10
2022-08-23T01:30:21.452Z,16.10
2022-08-23T01:32:53.470Z,16.00
2022-08-23T01:37:56.549Z,16.00
2022-08-23T01:40:24.378Z,15.90
2022-08-23T01:42:52.244Z,15.90
2022-08-23T01:45:19.686Z,16.00
2022-08-23T01:47:47.635Z,16.00
2022-08-23T01:50:15.374Z,16.00
2022-08-23T01:52:46.581Z,16.00
2022-08-23T01:55:15.884Z,16.00
2022-08-23T01:57:45.443Z,16.00
2022-08-23T02:00:19.336Z,16.00
2022-08-23T02:02:47.241Z,15.90
2022-08-23T02:05:17.482Z,15.90
2022-08-23T02:07:47.730Z,15.90
2022-08-23T02:10:18.143Z,15.90
2022-08-23T02:12:46.842Z,15.90
2022-08-23T02:15:17.771Z,15.90
2022-08-23T02:17:47.837Z,15.90
2022-08-23T02:20:15.287Z,15.90
2022-08-23T02:22:42.657Z,15.80
2022-08-23T02:25:10.329Z,15.80
2022-08-23T02:27:37.992Z,15.70
2022-08-23T02:30:12.909Z,15.70
2022-08-23T02:32:40.315Z,15.70
2022-08-23T02:35:08.545Z,15.70
2022-08-23T02:37:36.829Z,15.70
2022-08-23T02:40:06.479Z,15.70
2022-08-23T02:42:34.598Z,15.70
2022-08-23T02:45:03.792Z,15.70
2022-08-23T02:47:33.294Z,15.70
2022-08-23T02:50:16.650Z,15.70
2022-08-23T02:52:44.901Z,15.70
2022-08-23T02:55:12.683Z,15.70
2022-08-23T02:57:40.662Z,15.60
2022-08-23T03:00:12.817Z,15.60
2022-08-23T03:02:41.132Z,15.60
2022-08-23T03:05:10.078Z,15.50
2022-08-23T03:07:37.895Z,15.50
2022-08-23T03:10:07.234Z,15.50
2022-08-23T03:12:37.870Z,15.50
2022-08-23T03:15:07.063Z,15.40
2022-08-23T03:17:35.606Z,15.40
2022-08-23T03:20:06.810Z,15.40
2022-08-23T03:22:34.463Z,15.30
2022-08-23T03:25:02.172Z,15.30
2022-08-23T03:27:44.825Z,15.20
2022-08-23T03:30:19.283Z,15.20
2022-08-23T03:32:54.015Z,15.20
2022-08-23T03:35:21.826Z,15.10
2022-08-23T03:37:52.375Z,15.10
2022-08-23T03:40:23.200Z,15.00
2022-08-23T03:42:51.989Z,15.00
2022-08-23T03:45:22.175Z,14.90
2022-08-23T03:47:50.244Z,14.90
2022-08-23T03:50:17.702Z,14.90
2022-08-23T03:52:45.091Z,14.80
2022-08-23T03:55:12.424Z,14.80
2022-08-23T03:57:43.653Z,14.80
2022-08-23T04:00:14.671Z,14.80
2022-08-23T04:02:51.058Z,14.70
2022-08-23T04:05:19.052Z,14.70
2022-08-23T04:07:59.585Z,14.70
2022-08-23T04:10:26.955Z,14.70
2022-08-23T04:12:56.370Z,14.70
2022-08-23T04:15:25.008Z,14.70
2022-08-23T04:17:52.702Z,14.70
2022-08-23T04:20:20.350Z,14.70
2022-08-23T04:22:54.988Z,14.70
2022-08-23T04:25:34.894Z,14.70
2022-08-23T04:28:05.711Z,14.60
2022-08-23T04:30:34.369Z,14.70
2022-08-23T04:33:04.544Z,14.60
2022-08-23T04:35:38.731Z,14.70
2022-08-23T04:38:24.698Z,14.70
2022-08-23T04:41:32.466Z,14.70
2022-08-23T04:44:00.573Z,14.80
2022-08-23T04:46:29.488Z,14.80
2022-08-23T04:49:00.865Z,14.80
2022-08-23T04:51:28.334Z,14.80
2022-08-23T04:53:56.786Z,14.80
2022-08-23T04:56:41.615Z,14.80
2022-08-23T04:59:13.090Z,14.90
2022-08-23T05:01:43.022Z,14.90
2022-08-23T05:04:10.916Z,14.90
2022-08-23T05:06:40.206Z,14.90
2022-08-23T05:09:07.687Z,14.90
2022-08-23T05:11:36.249Z,14.90
2022-08-23T05:14:04.246Z,15.00
2022-08-23T05:16:31.622Z,15.00
2022-08-23T05:19:04.291Z,15.00
2022-08-23T05:21:33.967Z,15.10
2022-08-23T05:24:03.738Z,15.20
2022-08-23T05:26:31.899Z,15.30
2022-08-23T05:28:59.233Z,15.30
2022-08-23T05:31:32.365Z,15.30
2022-08-23T05:34:02.949Z,15.40
2022-08-23T05:36:54.510Z,15.50
2022-08-23T05:39:32.734Z,15.60
2022-08-23T05:42:11.424Z,15.60
2022-08-23T05:44:38.854Z,15.70
2022-08-23T05:47:11.685Z,15.80
2022-08-23T05:50:02.365Z,15.80
2022-08-23T05:52:33.691Z,16.00
2022-08-23T05:55:02.247Z,16.10
2022-08-23T05:57:53.112Z,16.10
2022-08-23T06:00:21.121Z,16.20
2022-08-23T06:03:00.173Z,16.30
2022-08-23T06:05:27.988Z,16.40
2022-08-23T06:07:55.670Z,16.50
2022-08-23T06:10:24.527Z,16.50
2022-08-23T06:13:03.345Z,16.60
2022-08-23T06:15:32.317Z,16.80
2022-08-23T06:17:59.929Z,16.80
2022-08-23T06:20:27.623Z,16.90
2022-08-23T06:23:00.625Z,17.10
2022-08-23T06:25:29.131Z,17.60
2022-08-23T06:28:11.104Z,18.10
2022-08-23T06:30:40.177Z,18.50
2022-08-23T06:33:18.658Z,18.60
2022-08-23T06:35:45.948Z,18.60
2022-08-23T06:38:20.469Z,18.50
2022-08-23T06:40:48.222Z,18.50
2022-08-23T06:43:25.725Z,18.50
2022-08-23T06:46:23.549Z,18.50
2022-08-23T06:48:53.230Z,18.50
2022-08-23T06:51:30.799Z,18.60
2022-08-23T06:54:19.501Z,18.70
2022-08-23T06:56:53.834Z,18.70
2022-08-23T06:59:25.941Z,18.80
2022-08-23T07:02:14.841Z,18.80
2022-08-23T07:05:00.478Z,18.80
2022-08-23T07:07:37.459Z,19.00
2022-08-23T07:10:10.223Z,19.00
2022-08-23T07:12:45.173Z,19.10
2022-08-23T07:15:13.558Z,19.20
2022-08-23T07:17:44.268Z,19.10
2022-08-23T07:20:11.516Z,19.10
2022-08-23T07:22:41.430Z,19.30
2022-08-23T07:25:10.155Z,19.40
2022-08-23T07:27:39.585Z,19.50
2022-08-23T07:30:09.365Z,19.60
2022-08-23T07:32:40.658Z,19.70
2022-08-23T07:35:26.473Z,19.80
2022-08-23T07:37:57.693Z,20.00
2022-08-23T07:40:30.180Z,20.00
2022-08-23T07:43:03.285Z,20.20
2022-08-23T07:45:31.361Z,20.30
2022-08-23T07:48:02.708Z,20.40
2022-08-23T07:50:35.185Z,20.40
2022-08-23T07:53:04.152Z,20.60
2022-08-23T07:55:31.562Z,20.70
2022-08-23T07:57:59.304Z,20.70
2022-08-23T08:00:46.689Z,20.80
2022-08-23T08:03:36.018Z,20.90
2022-08-23T08:06:14.630Z,21.00
2022-08-23T08:08:43.306Z,21.10
2022-08-23T08:11:12.191Z,21.10
2022-08-23T08:13:41.946Z,21.20
2022-08-23T08:16:10.009Z,21.30
2022-08-23T08:18:40.799Z,21.40
2022-08-23T08:21:47.449Z,21.50
2022-08-23T08:24:34.629Z,21.60
2022-08-23T08:27:07.913Z,21.80
2022-08-23T08:29:35.368Z,21.80
2022-08-23T08:32:02.835Z,21.80
2022-08-23T08:34:30.165Z,21.60
2022-08-23T08:36:58.850Z,21.60
2022-08-23T08:39:33.682Z,21.80
2022-08-23T08:42:12.559Z,21.90
2022-08-23T08:44:49.956Z,22.00
2022-08-23T08:47:24.374Z,22.10
2022-08-23T08:50:19.905Z,22.20
2022-08-23T08:53:13.814Z,22.50
2022-08-23T08:56:07.552Z,22.70
2022-08-23T08:59:04.177Z,22.70
2022-08-23T09:01:35.283Z,22.90
2022-08-23T09:04:04.117Z,22.80
2022-08-23T09:06:49.691Z,22.90
2022-08-23T09:09:19.808Z,23.00
2022-08-23T09:11:59.214Z,23.00
2022-08-23T09:14:55.189Z,23.00
2022-08-23T09:17:40.879Z,23.20
2022-08-23T09:20:09.851Z,23.30
2022-08-23T09:22:42.985Z,23.40
2022-08-23T09:25:20.244Z,23.50
2022-08-23T09:27:56.992Z,23.60
2022-08-23T09:30:47.382Z,23.50
2022-08-23T09:33:20.199Z,23.70
2022-08-23T09:36:13.331Z,23.80
2022-08-23T09:39:14.558Z,23.90
2022-08-23T09:41:43.754Z,24.10
2022-08-23T09:44:14.000Z,24.20
2022-08-23T09:46:43.774Z,24.40
2022-08-23T09:49:30.181Z,24.40
2022-08-23T09:52:22.158Z,24.50
2022-08-23T09:55:03.034Z,24.70
2022-08-23T09:57:34.326Z,24.50
2022-08-23T10:00:22.245Z,24.50
2022-08-23T10:02:57.517Z,24.60
2022-08-23T10:05:39.006Z,24.40
2022-08-23T10:08:10.963Z,24.60
2022-08-23T10:10:49.069Z,24.70
2022-08-23T10:13:23.324Z,24.70
2022-08-23T10:16:05.763Z,24.80
2022-08-23T10:18:54.501Z,24.90
2022-08-23T10:21:41.311Z,24.90
2022-08-23T10:24:22.732Z,24.70
2022-08-23T10:27:37.991Z,24.80
2022-08-23T10:30:13.474Z,24.90
2022-08-23T10:33:16.916Z,25.00
2022-08-23T10:36:28.167Z,25.10
2022-08-23T10:39:03.653Z,25.00
2022-08-23T10:41:47.987Z,25.30
2022-08-23T10:44:26.271Z,25.30
2022-08-23T10:47:16.030Z,25.30
2022-08-23T10:49:46.608Z,25.60
2022-08-23T10:52:24.830Z,25.90
2022-08-23T10:55:17.269Z,26.10
2022-08-23T10:57:47.900Z,26.30
2022-08-23T11:00:23.063Z,26.60
2022-08-23T11:02:54.823Z,26.30
2022-08-23T11:05:32.429Z,26.30
2022-08-23T11:08:23.860Z,26.40
2022-08-23T11:10:55.752Z,26.30
2022-08-23T11:13:34.452Z,26.40
2022-08-23T11:16:25.566Z,26.70
2022-08-23T11:18:52.985Z,26.80
2022-08-23T11:21:45.856Z,27.20
2022-08-23T11:24:15.037Z,27.30
2022-08-23T11:26:47.021Z,27.20
2022-08-23T11:29:23.744Z,27.40
2022-08-23T11:32:37.924Z,27.50
2022-08-23T11:35:11.805Z,27.80
2022-08-23T11:37:50.637Z,27.80
2022-08-23T11:40:51.503Z,28.00
2022-08-23T11:43:34.511Z,28.50
2022-08-23T11:46:27.235Z,28.40
2022-08-23T11:49:14.685Z,28.60
2022-08-23T11:52:01.225Z,28.60
2022-08-23T11:55:02.985Z,29.20
2022-08-23T11:57:53.407Z,29.80
2022-08-23T12:00:55.146Z,30.40
2022-08-23T12:03:37.792Z,30.40
2022-08-23T12:06:21.329Z,30.50
2022-08-23T12:08:57.174Z,31.10
2022-08-23T12:11:26.756Z,31.70
2022-08-23T12:14:01.398Z,31.40
2022-08-23T12:16:33.527Z,31.30
2022-08-23T12:19:07.888Z,31.30
2022-08-23T12:21:48.315Z,31.50
2022-08-23T12:24:32.772Z,31.50
2022-08-23T12:27:17.911Z,31.40
2022-08-23T12:29:49.157Z,31.50
2022-08-23T12:32:30.498Z,31.90
2022-08-23T12:35:25.900Z,32.20
2022-08-23T12:38:20.545Z,32.90
2022-08-23T12:40:51.817Z,33.60
2022-08-23T12:43:26.758Z,33.70
2022-08-23T12:45:55.511Z,34.30
2022-08-23T12:48:26.319Z,34.80
2022-08-23T12:51:03.415Z,35.10
2022-08-23T12:53:40.249Z,35.40
2022-08-23T12:56:18.821Z,35.60
2022-08-23T12:58:52.240Z,35.70
2022-08-23T13:01:29.799Z,35.10
2022-08-23T13:04:06.399Z,35.20
2022-08-23T13:06:56.796Z,35.80
2022-08-23T13:09:30.127Z,35.70
2022-08-23T13:11:59.810Z,35.90
2022-08-23T13:14:44.309Z,36.30
2022-08-23T13:17:26.495Z,36.90
2022-08-23T13:20:22.587Z,37.40
2022-08-23T13:23:05.752Z,38.00
2022-08-23T13:25:42.471Z,38.50
2022-08-23T13:28:25.111Z,38.30
2022-08-23T13:31:04.797Z,38.50
2022-08-23T13:33:32.337Z,39.50
2022-08-23T13:36:19.419Z,40.80
2022-08-23T13:38:49.571Z,41.90
2022-08-23T13:41:38.377Z,43.10
2022-08-23T13:44:08.627Z,43.00
2022-08-23T13:46:45.236Z,44.30
2022-08-23T13:49:27.518Z,44.70
2022-08-23T13:52:37.611Z,45.10
2022-08-23T13:54:50.884Z,45.90
2022-08-23T13:57:21.529Z,46.70
2022-08-23T13:59:55.321Z,47.90
2022-08-23T14:02:24.244Z,47.10
2022-08-23T14:04:52.043Z,47.40
2022-08-23T14:07:19.992Z,47.50
2022-08-23T14:09:47.207Z,47.50
2022-08-23T14:12:24.695Z,47.90
2022-08-23T14:14:57.259Z,47.00
2022-08-23T14:17:24.822Z,47.00
2022-08-23T14:20:32.627Z,47.30
2022-08-23T14:22:40.401Z,47.60
2022-08-23T14:25:09.099Z,47.40
2022-08-23T14:27:39.164Z,48.00
2022-08-23T14:30:08.431Z,47.90
2022-08-23T14:32:35.842Z,47.90
2022-08-23T14:35:03.149Z,47.10
2022-08-23T14:40:18.460Z,48.20
2022-08-23T14:42:47.023Z,48.40
2022-08-23T14:45:16.164Z,49.00
2022-08-23T14:47:43.886Z,48.70
2022-08-23T14:50:13.471Z,49.20
2022-08-23T14:52:45.726Z,49.50
2022-08-23T14:55:13.341Z,48.90
2022-08-23T14:57:41.399Z,48.70
2022-08-23T15:00:13.997Z,48.20
2022-08-23T15:02:46.682Z,47.40
2022-08-23T15:05:15.208Z,47.50
2022-08-23T15:07:43.277Z,47.20
2022-08-23T15:10:49.964Z,47.00
2022-08-23T15:13:14.017Z,46.90
2022-08-23T15:15:43.292Z,46.60
2022-08-23T15:18:10.613Z,46.60
2022-08-23T15:20:38.927Z,46.90
2022-08-23T15:23:08.575Z,47.10
2022-08-23T15:25:38.682Z,47.50
2022-08-23T15:28:12.827Z,47.90
2022-08-23T15:30:41.961Z,48.30
2022-08-23T15:33:10.634Z,48.40
2022-08-23T15:35:45.756Z,48.30
2022-08-23T15:38:15.793Z,47.40
2022-08-23T15:40:44.466Z,47.80
2022-08-23T15:43:11.874Z,48.40
2022-08-23T15:45:39.743Z,47.90
2022-08-23T15:48:34.705Z,47.70
2022-08-23T15:51:04.403Z,47.80
2022-08-23T15:53:31.851Z,48.00
2022-08-23T15:56:05.049Z,48.00
2022-08-23T15:58:32.979Z,48.00
2022-08-23T16:01:00.432Z,48.00
2022-08-23T16:03:27.998Z,47.40
2022-08-23T16:05:56.010Z,46.80
2022-08-23T16:08:32.124Z,46.50
2022-08-23T16:11:01.992Z,46.00
2022-08-23T16:13:29.292Z,45.90
2022-08-23T16:15:57.700Z,46.20
2022-08-23T16:18:25.010Z,46.40
2022-08-23T16:20:54.255Z,46.40
2022-08-23T16:23:23.054Z,46.40
2022-08-23T16:25:50.440Z,46.20
2022-08-23T16:28:17.932Z,45.90
2022-08-23T16:30:45.295Z,45.00
2022-08-23T16:33:12.827Z,45.70
2022-08-23T16:35:40.055Z,46.30
2022-08-23T16:38:07.442Z,46.10
2022-08-23T16:40:34.678Z,45.50
2022-08-23T16:43:02.024Z,45.40
2022-08-23T16:45:29.371Z,45.20
2022-08-23T16:47:56.667Z,45.60
2022-08-23T16:50:24.121Z,44.60
2022-08-23T16:52:51.481Z,44.00
2022-08-23T16:55:19.266Z,44.30
2022-08-23T16:57:46.606Z,44.50
2022-08-23T17:00:15.261Z,44.60
2022-08-23T17:02:44.165Z,44.60
2022-08-23T17:05:16.355Z,44.30
2022-08-23T17:07:43.698Z,44.10
2022-08-23T17:10:12.669Z,44.30
2022-08-23T17:12:46.873Z,43.90
2022-08-23T17:15:18.973Z,43.50
2022-08-23T17:17:48.290Z,43.40
2022-08-23T17:20:16.854Z,43.40
2022-08-23T17:22:44.157Z,42.70
2022-08-23T17:25:12.093Z,41.60
2022-08-23T17:27:45.506Z,40.70
2022-08-23T17:30:16.901Z,39.60
2022-08-23T17:32:44.869Z,38.20
2022-08-23T17:35:15.013Z,36.70
2022-08-23T17:37:43.313Z,35.50
2022-08-23T17:40:16.819Z,34.40
2022-08-23T17:42:48.808Z,33.70
2022-08-23T17:45:16.715Z,33.90
2022-08-23T17:47:44.228Z,34.30
2022-08-23T17:50:12.519Z,34.60
2022-08-23T17:52:39.952Z,34.70
2022-08-23T17:55:10.607Z,34.80
2022-08-23T17:57:38.957Z,34.30
2022-08-23T18:00:11.533Z,34.00
2022-08-23T18:02:38.712Z,33.30
2022-08-23T18:05:09.187Z,32.60
2022-08-23T18:07:37.232Z,31.80
2022-08-23T18:10:07.260Z,30.90
2022-08-23T18:12:37.618Z,30.00
2022-08-23T18:15:06.013Z,29.30
2022-08-23T18:17:34.383Z,28.70
2022-08-23T18:20:02.325Z,28.00
2022-08-23T18:22:29.787Z,27.50
2022-08-23T18:24:57.123Z,27.10
2022-08-23T18:27:43.004Z,26.70
2022-08-23T18:30:11.582Z,26.40
2022-08-23T18:32:45.075Z,26.00
2022-08-23T18:35:12.913Z,25.80
2022-08-23T18:37:42.464Z,25.50
2022-08-23T18:40:12.596Z,25.20
2022-08-23T18:42:40.799Z,25.00
2022-08-23T18:45:09.218Z,24.80
2022-08-23T18:47:36.998Z,24.60
2022-08-23T18:50:06.927Z,24.40
2022-08-23T18:52:34.473Z,24.30
2022-08-23T18:55:01.815Z,24.10
2022-08-23T18:57:29.553Z,24.00
2022-08-23T18:59:56.913Z,23.90
2022-08-23T19:02:24.612Z,23.80
2022-08-23T19:04:54.995Z,23.70
2022-08-23T19:07:22.252Z,23.60
2022-08-23T19:09:49.557Z,23.50
2022-08-23T19:12:17.783Z,23.50
2022-08-23T19:14:45.306Z,23.40
2022-08-23T19:17:12.669Z,23.30
2022-08-23T19:19:39.926Z,23.20
2022-08-23T19:22:07.172Z,23.10
2022-08-23T19:24:34.970Z,23.00
2022-08-23T19:27:02.278Z,23.00
2022-08-23T19:29:29.566Z,22.90
2022-08-23T19:31:56.877Z,22.90
2022-08-23T19:34:24.264Z,22.80
2022-08-23T19:37:00.778Z,22.80
2022-08-23T19:39:29.570Z,22.80
2022-08-23T19:41:56.978Z,22.70
2022-08-23T19:44:24.673Z,22.60
2022-08-23T19:46:52.388Z,22.60
2022-08-23T19:49:19.701Z,22.60
2022-08-23T19:51:46.967Z,22.50
2022-08-23T19:54:14.225Z,22.40
2022-08-23T19:56:45.950Z,22.40
2022-08-23T19:59:24.572Z,22.30
2022-08-23T20:01:53.830Z,22.30
2022-08-23T20:04:22.691Z,22.20
2022-08-23T20:06:50.653Z,22.10
2022-08-23T20:09:19.690Z,22.10
2022-08-23T20:11:46.984Z,22.00
2022-08-23T20:14:15.100Z,21.90
2022-08-23T20:16:42.563Z,22.00
2022-08-23T20:19:11.064Z,21.90
2022-08-23T20:21:40.101Z,21.90
2022-08-23T20:24:12.406Z,21.80
2022-08-23T20:26:44.177Z,21.80
2022-08-23T20:29:22.369Z,21.70
2022-08-23T20:31:56.496Z,21.70
2022-08-23T20:34:27.069Z,21.60
2022-08-23T20:36:56.522Z,21.60
2022-08-23T20:39:24.826Z,21.50
2022-08-23T20:41:53.124Z,21.50
2022-08-23T20:44:25.150Z,21.50
2022-08-23T20:46:54.805Z,21.40
2022-08-23T20:49:24.373Z,21.30
2022-08-23T20:51:52.504Z,21.30
2022-08-23T20:54:20.328Z,21.20
2022-08-23T20:56:50.746Z,21.10
2022-08-23T20:59:18.591Z,21.10
2022-08-23T21:01:45.935Z,20.90
2022-08-23T21:04:13.317Z,20.90
2022-08-23T21:06:45.331Z,20.80
2022-08-23T21:09:17.172Z,20.70
2022-08-23T21:11:45.375Z,20.60
2022-08-23T21:14:17.068Z,20.60
2022-08-23T21:16:44.986Z,20.50
2022-08-23T21:19:12.367Z,20.50
2022-08-23T21:21:40.743Z,20.50
2022-08-23T21:24:09.825Z,20.50
2022-08-23T21:26:38.124Z,20.40
2022-08-23T21:29:07.856Z,20.40
2022-08-23T21:31:35.720Z,20.40
2022-08-23T21:34:03.906Z,20.30
2022-08-23T21:36:31.176Z,20.30
2022-08-23T21:38:58.408Z,20.30
2022-08-23T21:41:32.066Z,20.20
2022-08-23T21:44:00.172Z,20.30
2022-08-23T21:46:27.511Z,20.30
2022-08-23T21:48:55.119Z,20.40
2022-08-23T21:51:22.965Z,20.40
2022-08-23T21:53:50.793Z,20.30
2022-08-23T21:56:19.363Z,20.30
2022-08-23T21:58:46.936Z,20.30
2022-08-23T22:01:18.940Z,20.40
2022-08-23T22:03:47.075Z,20.30
2022-08-23T22:06:17.094Z,20.30
2022-08-23T22:08:46.126Z,20.30
2022-08-23T22:11:14.718Z,20.30
2022-08-23T22:13:42.628Z,20.30
2022-08-23T22:16:10.040Z,20.20
2022-08-23T22:18:37.602Z,20.10
2022-08-23T22:21:06.686Z,20.10
2022-08-23T22:23:36.555Z,20.00
2022-08-23T22:26:06.792Z,20.00
2022-08-23T22:28:36.183Z,19.90
2022-08-23T22:31:06.764Z,19.90
2022-08-23T22:33:34.217Z,19.80
2022-08-23T22:36:14.249Z,19.80
2022-08-23T22:38:41.669Z,19.70
2022-08-23T22:41:09.730Z,19.70
2022-08-23T22:43:37.439Z,19.60
2022-08-23T22:46:05.336Z,19.60
2022-08-23T22:48:35.475Z,19.60
2022-08-23T22:51:10.974Z,19.50
2022-08-23T22:53:40.782Z,19.50
2022-08-23T22:56:10.399Z,19.50
2022-08-23T22:58:38.006Z,19.40
2022-08-23T23:01:07.272Z,19.40
2022-08-23T23:03:41.951Z,19.30
2022-08-23T23:06:09.899Z,19.30
2022-08-23T23:08:37.893Z,19.20
2022-08-23T23:11:07.951Z,19.20
2022-08-23T23:13:35.744Z,19.20
2022-08-23T23:16:06.879Z,19.10
2022-08-23T23:18:35.073Z,19.00
2022-08-23T23:21:04.655Z,19.10
2022-08-23T23:23:33.954Z,19.00
2022-08-23T23:26:01.229Z,19.00
2022-08-23T23:28:29.249Z,18.90
2022-08-23T23:30:57.867Z,18.90
2022-08-23T23:33:26.445Z,18.90
2022-08-23T23:35:53.802Z,18.80
2022-08-23T23:38:21.557Z,18.80
2022-08-23T23:40:48.854Z,18.70
2022-08-23T23:43:16.933Z,18.70
2022-08-23T23:45:44.657Z,18.60
2022-08-23T23:48:11.951Z,18.60
2022-08-23T23:50:46.413Z,18.60
2022-08-23T23:53:15.462Z,18.50
2022-08-23T23:55:43.496Z,18.40
2022-08-23T23:58:10.767Z,18.40
